Terminal Aerodrome Forecast
Issued by NWS Corpus Christi, TX

Home | Current Version | Previous Version | Text Only | Print | Product List | Glossary On
Versions: 1 2 3 4 5 6 7 8 9 10 11 12 13
795
FTUS44 KCRP 181751
TAFVCT
TAF
KVCT 181751Z 1818/1918 15007KT P6SM FEW035 SCT250
     FM190300 13004KT P6SM FEW020 BKN250
     FM190800 03004KT 4SM BR SCT020 BKN250
      TEMPO 1911/1914 6SM BR BKN020
     FM191400 07006KT P6SM FEW020 BKN035=

USA.gov is the U.S. government's official web portal to all federal, state and local government web resources and services.